• Join FlightAware (Why Join?)
  • Login
  • US Flag 
12:09AM EDT


 

Airport Tracker/Info


-or-


 

Live Flight TrackerFlight Track Log ✈ GJS3655 ✈ 15-Jun-2013 ✈ CYUL - KIAD

Flight Track Log - Related Links

Times and Time Zones

All times are in EDT time to prevent confusion due to time zone crossing. See the GJS3655 flight status page for this flight to view local times or setup timezone preferences in your user account.

Time Position Orientation Groundspeed Altitude Reporting Facility
EDT Latitude Longitude Course Direction KTS MPH feet Rate Location/Type
10:25AM 45.4333 -73.7500 55° Northeast 60 69 100  Level Montreal Center
10:27AM 45.3312 -73.8188 215° Southwest  Level FlightAware Approximate
10:31AM 45.4500 -73.7167 224° Southwest 10 12 100  Level Montreal Center
10:32AM 45.4500 -73.7167 224° Southwest 20 23 100  Level Montreal Center
10:34AM 45.3068 -73.8432 215° Southwest  Level FlightAware Approximate
10:35AM 44.6206 -74.2655 224° Southwest  Level FlightAware Approximate
10:35AM 45.4667 -73.7000 215° Southwest 40 46 100  Level Montreal Center
10:36AM 44.5487 -74.3629 224° Southwest  Level FlightAware Approximate
10:36AM 45.4167 -73.7500 215° Southwest 160 184 2,200  Level Montreal Center
10:37AM 45.3833 -73.8167 235° Southwest 210 242 4,700 2,820 Climbing Montreal Center
10:38AM 45.3333 -73.8667 215° Southwest 270 311 7,900 2,880 Climbing Montreal Center
10:39AM 45.2500 -73.9000 196° South 290 334 10,500 2,280 Climbing Montreal Center
10:40AM 45.1667 -73.9500 203° Southwest 340 391 12,500 2,100 Climbing Montreal Center
10:41AM 45.0667 -73.9833 193° South 370 426 14,700 2,340 Climbing Montreal Center
10:42AM 44.9833 -74.0667 215° Southwest 360 414 17,200 2,400 Climbing Montreal Center
10:43AM 44.9000 -74.1667 220° Southwest 370 426 19,500 1,980 Climbing Montreal Center
10:44AM 44.8500 -74.2667 235° Southwest 380 437 21,200 1,800 Climbing Montreal Center
10:44AM 44.7981 -74.3297 221° Southwest 388 447 22,300 1,620 Climbing Boston Center
10:45AM 44.7108 -74.4322 220° Southwest 394 453 23,800 1,380 Climbing Boston Center
10:46AM 44.6322 -74.5228 219° Southwest 407 468 25,100 1,440 Climbing Boston Center
10:47AM 44.5383 -74.6303 219° Southwest 414 476 26,700 1,380 Climbing Boston Center
10:48AM 44.4447 -74.7403 220° Southwest 431 496 27,900 600 Climbing Boston Center
10:49AM 44.3486 -74.8556 221° Southwest 443 510 28,000  Climbing Boston Center
10:50AM 44.2522 -74.9706 221° Southwest 454 522 27,900  Descending Boston Center
10:51AM 44.1517 -75.0847 219° Southwest 466 536 28,000 360 Climbing Boston Center
10:52AM 44.0531 -75.2019 221° Southwest 466 536 28,700 840 Climbing Boston Center
10:53AM 43.9544 -75.3128 219° Southwest 466 536 29,700 600 Climbing Boston Center
10:54AM 43.8514 -75.4317 220° Southwest 471 542 30,000 120 Climbing Boston Center
10:55AM 43.7461 -75.5528 220° Southwest 483 556 30,000 -60 Level Boston Center
10:56AM 43.6383 -75.6764 220° Southwest 498 573 29,900  Descending Boston Center
10:57AM 43.5306 -75.7994 220° Southwest 503 579 30,000  Climbing Boston Center
10:58AM 43.4119 -75.9331 219° Southwest 508 585 30,000  Level Boston Center
10:59AM 43.3039 -76.0553 219° Southwest 508 585 30,000 -60 Level Boston Center
11:00AM 43.1939 -76.1742 218° Southwest 508 585 29,900  Descending Boston Center
11:01AM 43.0778 -76.2781 213° Southwest 508 585 30,000  Climbing Boston Center
11:02AM 42.9575 -76.3783 211° Southwest 508 585 30,000  Level Boston Center
11:04AM 42.7575 -76.5386 210° Southwest 488 562 30,000  Level New York Center
11:05AM 42.6383 -76.6353 211° Southwest 494 568 30,000  Level New York Center
11:06AM 42.5322 -76.7186 210° Southwest 503 579 30,000  Level New York Center
11:07AM 42.3908 -76.8375 212° Southwest 503 579 30,000  Level New York Center
11:08AM 42.2717 -76.9303 210° Southwest 498 573 30,000  Level New York Center
11:09AM 42.1544 -77.0256 211° Southwest 498 573 30,000 -540 Level New York Center
11:10AM 42.0392 -77.1181 211° Southwest 498 573 29,000 -1,020 Descending New York Center
11:11AM 41.9197 -77.2097 210° Southwest 498 573 28,000 -540 Descending New York Center
11:12AM 41.8083 -77.3019 212° Southwest 498 573 28,000  Level New York Center
11:13AM 41.6906 -77.3961 211° Southwest 498 573 28,000  Level New York Center
11:14AM 41.5753 -77.4872 211° Southwest 498 573 28,000  Level New York Center
11:15AM 41.4597 -77.5756 210° Southwest 498 573 28,000 -180 Level New York Center
11:16AM 41.3464 -77.6636 210° Southwest 493 567 27,700 -660 Descending New York Center
11:17AM 41.2297 -77.7344 205° Southwest 480 552 26,700 -960 Descending New York Center
11:18AM 41.0972 -77.6822 163° South 455 524 25,800 -1,200 Descending New York Center
11:19AM 40.9681 -77.6086 157° South 476 548 24,300 -1,560 Descending New York Center
11:20AM 40.8392 -77.5328 156° South 488 562 22,800 -1,560 Descending New York Center
11:21AM 40.7200 -77.4633 156° South 488 562 21,300 -1,500 Descending New York Center
11:22AM 40.6000 -77.4106 162° South 477 549 19,800 -1,500 Descending New York Center
11:23AM 40.4844 -77.3914 173° South 469 540 18,300 -1,440 Descending New York Center
11:25AM 40.2667 -77.3500 172° South 439 505 16,100 -1,440 Descending Potomac TRACON
11:26AM 40.1500 -77.3167 168° South 424 488 14,600 -1,500 Descending Potomac TRACON
11:27AM 40.0500 -77.3000 173° South 414 476 13,100 -840 Descending Potomac TRACON
11:28AM 39.9333 -77.2833 174° South 410 472 13,000 -360 Descending Potomac TRACON
11:29AM 39.8167 -77.2667 174° South 397 457 12,400 -1,320 Descending Potomac TRACON
11:30AM 39.7167 -77.3000 194° South 358 412 10,400 -1,560 Descending Potomac TRACON
11:31AM 39.6333 -77.3333 197° South 295 339 9,300 -1,440 Descending Potomac TRACON
11:32AM 39.5500 -77.3500 189° South 284 327 7,600 -1,800 Descending Potomac TRACON
11:32AM 39.4833 -77.3500 180° South 274 315 5,900 -1,380 Descending Potomac TRACON
11:33AM 39.4000 -77.3667 189° South 278 320 5,000 -480 Descending Potomac TRACON
11:34AM 39.3333 -77.3667 180° South 277 319 5,000  Level Potomac TRACON
11:36AM 39.2667 -77.3667 180° South 274 315 5,000 -120 Level Potomac TRACON
11:37AM 39.1833 -77.3667 180° South 278 320 4,800 -540 Descending Potomac TRACON
11:38AM 39.1000 -77.3500 171° South 273 314 4,000 -420 Descending Potomac TRACON
11:39AM 39.0333 -77.3500 180° South 270 311 4,000  Level Potomac TRACON
11:40AM 38.9500 -77.3500 180° South 277 319 4,000 -240 Level Potomac TRACON
11:40AM 38.8833 -77.3500 180° South 270 311 3,600 -540 Descending Potomac TRACON
11:41AM 38.8167 -77.3667 191° South 265 305 3,000 -600 Descending Potomac TRACON
11:42AM 38.8000 -77.4167 247° West 214 246 2,500 -600 Descending Potomac TRACON